Time;durP1;ratioP1;P1;durP2;ratioP2;P2;SDS_P1;SDS_P2;PMS_P1;PMS_P2;Temp;Humidity;BMP_temperature;BMP_pressure;BME280_temperature;BME280_humidity;BME280_pressure;Samples;Min_cycle;Max_cycle;Signal;HPM_P1;HPM_P2
2021/10/18 00:02:15;;;;;;;3.8;2.6;;;;;;;;;;;;;
2021/10/18 00:04:40;;;;;;;5.4;3.4;;;;;;;;;;;;;
2021/10/18 00:07:05;;;;;;;4;3.2;;;;;;;;;;;;;
2021/10/18 00:09:30;;;;;;;3.3;3;;;;;;;;;;;;;
2021/10/18 00:11:56;;;;;;;5.8;3.6;;;;;;;;;;;;;
2021/10/18 00:14:21;;;;;;;4.6;3.3;;;;;;;;;;;;;
2021/10/18 00:16:46;;;;;;;4.7;3.3;;;;;;;;;;;;;
2021/10/18 00:19:11;;;;;;;4.2;3.5;;;;;;;;;;;;;
2021/10/18 00:21:37;;;;;;;4.3;3.4;;;;;;;;;;;;;
2021/10/18 00:24:02;;;;;;;4.4;3.2;;;;;;;;;;;;;
2021/10/18 00:26:27;;;;;;;5.4;3.3;;;;;;;;;;;;;
2021/10/18 00:28:52;;;;;;;4.9;3.3;;;;;;;;;;;;;
2021/10/18 00:31:19;;;;;;;4.2;3.3;;;;;;;;;;;;;
2021/10/18 00:33:43;;;;;;;4.2;3.5;;;;;;;;;;;;;
2021/10/18 00:36:08;;;;;;;4;3.2;;;;;;;;;;;;;
2021/10/18 00:38:34;;;;;;;4.3;3.4;;;;;;;;;;;;;
2021/10/18 00:40:59;;;;;;;3.7;3;;;;;;;;;;;;;
2021/10/18 00:43:25;;;;;;;5.4;3.5;;;;;;;;;;;;;
2021/10/18 00:45:50;;;;;;;4.1;3.2;;;;;;;;;;;;;
2021/10/18 00:48:16;;;;;;;3.9;3.1;;;;;;;;;;;;;
2021/10/18 00:50:41;;;;;;;5.4;3.1;;;;;;;;;;;;;
2021/10/18 00:53:07;;;;;;;3.5;3;;;;;;;;;;;;;
2021/10/18 00:55:32;;;;;;;4.1;2.7;;;;;;;;;;;;;
2021/10/18 00:57:59;;;;;;;3.5;3;;;;;;;;;;;;;
2021/10/18 01:00:24;;;;;;;4.2;3.3;;;;;;;;;;;;;
2021/10/18 01:02:49;;;;;;;3.2;2.9;;;;;;;;;;;;;
2021/10/18 01:05:14;;;;;;;3.6;2.9;;;;;;;;;;;;;
2021/10/18 01:07:39;;;;;;;3.6;2.8;;;;;;;;;;;;;
2021/10/18 01:10:04;;;;;;;3.5;2.8;;;;;;;;;;;;;
2021/10/18 01:12:29;;;;;;;3.3;2.8;;;;;;;;;;;;;
2021/10/18 01:14:54;;;;;;;4.9;2.9;;;;;;;;;;;;;
2021/10/18 01:17:21;;;;;;;3.2;2.7;;;;;;;;;;;;;
2021/10/18 01:19:46;;;;;;;3.7;3;;;;;;;;;;;;;
2021/10/18 01:22:11;;;;;;;5;3;;;;;;;;;;;;;
2021/10/18 01:24:36;;;;;;;3.3;2.6;;;;;;;;;;;;;
2021/10/18 01:27:01;;;;;;;3.8;3.1;;;;;;;;;;;;;
2021/10/18 01:29:26;;;;;;;3.9;2.8;;;;;;;;;;;;;
2021/10/18 01:31:51;;;;;;;3.9;3.1;;;;;;;;;;;;;
2021/10/18 01:34:16;;;;;;;4;2.7;;;;;;;;;;;;;
2021/10/18 01:36:41;;;;;;;4.3;2.8;;;;;;;;;;;;;
2021/10/18 01:41:32;;;;;;;3.8;2.9;;;;;;;;;;;;;
2021/10/18 01:43:58;;;;;;;3.7;2.6;;;;;;;;;;;;;
2021/10/18 01:49:09;;;;;;;4.2;2.9;;;;;;;;;;;;;
2021/10/18 01:51:34;;;;;;;3.7;2.8;;;;;;;;;;;;;
2021/10/18 01:53:59;;;;;;;3.6;2.7;;;;;;;;;;;;;
2021/10/18 01:56:25;;;;;;;3.2;2.6;;;;;;;;;;;;;
2021/10/18 01:58:50;;;;;;;5.6;3.1;;;;;;;;;;;;;
2021/10/18 02:01:15;;;;;;;3.7;3;;;;;;;;;;;;;
2021/10/18 02:03:40;;;;;;;4.9;3;;;;;;;;;;;;;
2021/10/18 02:06:05;;;;;;;4.6;3.1;;;;;;;;;;;;;
2021/10/18 02:08:33;;;;;;;4.3;3.1;;;;;;;;;;;;;
2021/10/18 02:10:55;;;;;;;4.1;2.8;;;;;;;;;;;;;
2021/10/18 02:13:20;;;;;;;4.5;3.1;;;;;;;;;;;;;
2021/10/18 02:15:47;;;;;;;4.1;2.9;;;;;;;;;;;;;
2021/10/18 02:18:12;;;;;;;5.6;3.1;;;;;;;;;;;;;
2021/10/18 02:20:37;;;;;;;3.3;2.8;;;;;;;;;;;;;
2021/10/18 02:23:03;;;;;;;5.4;2.8;;;;;;;;;;;;;
2021/10/18 02:25:28;;;;;;;4.3;2.8;;;;;;;;;;;;;
2021/10/18 02:27:53;;;;;;;4;2.6;;;;;;;;;;;;;
2021/10/18 02:30:18;;;;;;;3.4;3;;;;;;;;;;;;;
2021/10/18 02:32:43;;;;;;;3.7;2.6;;;;;;;;;;;;;
2021/10/18 02:35:10;;;;;;;2.7;2.4;;;;;;;;;;;;;
2021/10/18 02:37:35;;;;;;;4.6;3.1;;;;;;;;;;;;;
2021/10/18 02:40:00;;;;;;;4.4;2.9;;;;;;;;;;;;;
2021/10/18 02:42:25;;;;;;;3.8;2.9;;;;;;;;;;;;;
2021/10/18 02:44:51;;;;;;;3.5;2.9;;;;;;;;;;;;;
2021/10/18 02:47:16;;;;;;;6.4;2.7;;;;;;;;;;;;;
2021/10/18 02:49:41;;;;;;;5.6;2.5;;;;;;;;;;;;;
2021/10/18 02:52:08;;;;;;;6.2;3.1;;;;;;;;;;;;;
2021/10/18 02:54:35;;;;;;;3.2;2.7;;;;;;;;;;;;;
2021/10/18 02:57:00;;;;;;;3.7;2.9;;;;;;;;;;;;;
2021/10/18 02:59:25;;;;;;;3.4;2.4;;;;;;;;;;;;;
2021/10/18 03:01:51;;;;;;;4.6;2.9;;;;;;;;;;;;;
2021/10/18 03:04:16;;;;;;;7.2;3.7;;;;;;;;;;;;;
2021/10/18 03:06:41;;;;;;;3.5;2.7;;;;;;;;;;;;;
2021/10/18 03:09:07;;;;;;;5;2.8;;;;;;;;;;;;;
2021/10/18 03:11:33;;;;;;;3.3;2.6;;;;;;;;;;;;;
2021/10/18 03:13:58;;;;;;;3.9;2.6;;;;;;;;;;;;;
2021/10/18 03:16:24;;;;;;;3.2;2.6;;;;;;;;;;;;;
2021/10/18 03:18:49;;;;;;;4.2;2.8;;;;;;;;;;;;;
2021/10/18 03:21:16;;;;;;;3.7;2.8;;;;;;;;;;;;;
2021/10/18 03:23:41;;;;;;;4.1;2.3;;;;;;;;;;;;;
2021/10/18 03:26:08;;;;;;;4.3;3;;;;;;;;;;;;;
2021/10/18 03:28:32;;;;;;;3.4;2.8;;;;;;;;;;;;;
2021/10/18 03:30:58;;;;;;;3.3;2.7;;;;;;;;;;;;;
2021/10/18 03:33:23;;;;;;;3.8;2.9;;;;;;;;;;;;;
2021/10/18 03:35:50;;;;;;;3.1;2.6;;;;;;;;;;;;;
2021/10/18 03:38:14;;;;;;;4;2.7;;;;;;;;;;;;;
2021/10/18 03:40:40;;;;;;;3.7;2.5;;;;;;;;;;;;;
2021/10/18 03:43:05;;;;;;;6.5;3.3;;;;;;;;;;;;;
2021/10/18 03:45:30;;;;;;;7.8;3.7;;;;;;;;;;;;;
2021/10/18 03:47:56;;;;;;;8.5;4.3;;;;;;;;;;;;;
2021/10/18 03:50:21;;;;;;;6.3;3.8;;;;;;;;;;;;;
2021/10/18 03:52:46;;;;;;;5.1;3.3;;;;;;;;;;;;;
2021/10/18 03:55:11;;;;;;;4.3;3.3;;;;;;;;;;;;;
2021/10/18 03:57:37;;;;;;;5.5;3.3;;;;;;;;;;;;;
2021/10/18 04:00:02;;;;;;;4.1;2.9;;;;;;;;;;;;;
2021/10/18 04:02:31;;;;;;;3.9;3.1;;;;;;;5.52;89.25488;943.7801;;;;
2021/10/18 04:04:56;;;;;;;3.6;3;;;;;;;5.44;89.98242;943.7122;;;;
2021/10/18 04:07:24;;;;;;;3.8;2.8;;;;;;;5.4;90.1875;943.7403;;;;
2021/10/18 04:09:49;;;;;;;3.9;2.9;;;;;;;5.44;90.02832;943.8253;;;;
2021/10/18 04:12:17;;;;;;;7.2;3.7;;;;;;;5.47;89.50293;943.7988;;;;
2021/10/18 04:14:42;;;;;;;3.4;3;;;;;;;5.52;89.55762;943.8067;;;;
2021/10/18 04:17:10;;;;;;;3.2;2.8;;;;;;;5.46;89.64844;943.8077;;;;
2021/10/18 04:19:36;;;;;;;4.6;3.2;;;;;;;5.29;90.13086;943.7466;;;;
2021/10/18 04:22:03;;;;;;;5.2;3.4;;;;;;;5.26;90.58594;943.783;;;;
2021/10/18 04:24:28;;;;;;;5.3;3.1;;;;;;;5.28;90.58008;943.6908;;;;
2021/10/18 04:26:55;;;;;;;8.9;3.5;;;;;;;5.19;91.05664;943.8128;;;;
2021/10/18 04:29:20;;;;;;;3.9;3;;;;;;;5.32;90.75879;943.7983;;;;
2021/10/18 04:31:47;;;;;;;4.5;2.8;;;;;;;5.32;90.73633;943.8126;;;;
2021/10/18 04:34:12;;;;;;;4.3;2.8;;;;;;;5.25;91.91602;943.8408;;;;
2021/10/18 04:36:39;;;;;;;6.2;3.4;;;;;;;5.35;91.88184;943.8625;;;;
2021/10/18 04:39:04;;;;;;;4.6;3.1;;;;;;;5.44;91.41602;943.8506;;;;
2021/10/18 04:41:31;;;;;;;4.1;2.8;;;;;;;5.33;91.88867;943.8152;;;;
2021/10/18 04:43:56;;;;;;;4;2.9;;;;;;;5.23;91.78809;943.8351;;;;
2021/10/18 04:46:21;;;;;;;5.4;2.8;;;;;;;5.26;92.00879;943.7605;;;;
2021/10/18 04:48:47;;;;;;;3.8;3.3;;;;;;;5.22;91.59473;943.8387;;;;
2021/10/18 04:51:13;;;;;;;7.9;3.8;;;;;;;5.25;91.46484;943.9163;;;;
2021/10/18 04:53:38;;;;;;;6.8;3.7;;;;;;;5.29;91.1709;943.9292;;;;
2021/10/18 04:56:03;;;;;;;5.3;3.5;;;;;;;5.4;90.74219;943.9742;;;;
2021/10/18 04:58:29;;;;;;;6.3;3.6;;;;;;;5.5;90.0957;943.938;;;;
2021/10/18 05:00:56;;;;;;;4.1;2.7;;;;;;;5.48;89.6748;943.9957;;;;
2021/10/18 05:03:19;;;;;;;4.9;3;;;;;;;5.5;89.89258;944.0028;;;;
2021/10/18 05:05:44;;;;;;;5.5;2.7;;;;;;;5.24;90.75098;944.0003;;;;
2021/10/18 05:08:09;;;;;;;3.5;2.6;;;;;;;5.21;91.21875;944.0165;;;;
2021/10/18 05:10:36;;;;;;;3.9;3;;;;;;;5.22;91.36719;944.1464;;;;
2021/10/18 05:13:01;;;;;;;6.3;3.2;;;;;;;5.3;90.85645;944.2019;;;;
2021/10/18 05:15:30;;;;;;;5.9;3.2;;;;;;;5.29;90.44824;944.2671;;;;
2021/10/18 05:17:58;;;;;;;4.3;3;;;;;;;5.39;90.16309;944.2753;;;;
2021/10/18 05:20:23;;;;;;;5.5;3.6;;;;;;;5.37;90.03516;944.282;;;;
2021/10/18 05:22:50;;;;;;;4.5;2.9;;;;;;;5.28;90.21875;944.377;;;;
2021/10/18 05:25:15;;;;;;;6.7;3.5;;;;;;;5.23;90.63867;944.443;;;;
2021/10/18 05:27:42;;;;;;;7.4;3.5;;;;;;;5.24;90.08594;944.437;;;;
2021/10/18 05:30:07;;;;;;;4.2;3;;;;;;;5.29;90.16504;944.5647;;;;
2021/10/18 05:32:33;;;;;;;6.2;3.6;;;;;;;5.23;89.91602;944.6049;;;;
2021/10/18 05:34:58;;;;;;;5.6;2.9;;;;;;;5.34;89.36426;944.6756;;;;
2021/10/18 05:37:24;;;;;;;5.9;2.9;;;;;;;5.33;89.16992;944.5923;;;;
2021/10/18 05:39:50;;;;;;;3.6;3;;;;;;;5.29;89.44434;944.6303;;;;
2021/10/18 05:42:15;;;;;;;6.7;3;;;;;;;5.18;90.24316;944.6033;;;;
2021/10/18 05:44:41;;;;;;;7;3.4;;;;;;;5.09;90.80859;944.6517;;;;
2021/10/18 05:47:06;;;;;;;7.2;3.1;;;;;;;5.01;90.77051;944.6667;;;;
2021/10/18 05:49:31;;;;;;;3.4;2.8;;;;;;;5.01;90.74805;944.6802;;;;
2021/10/18 05:51:56;;;;;;;6.1;3.1;;;;;;;5.02;90.24512;944.68;;;;
2021/10/18 05:54:21;;;;;;;6.8;3.2;;;;;;;5.04;89.92188;944.6555;;;;
2021/10/18 05:56:50;;;;;;;5.9;3.4;;;;;;;5.05;90.27344;944.7396;;;;
2021/10/18 05:59:15;;;;;;;4.8;3.8;;;;;;;5.09;90.50586;944.7255;;;;
2021/10/18 06:01:40;;;;;;;7.4;3.8;;;;;;;5.19;90.06445;944.7672;;;;
2021/10/18 06:07:46;;;;;;;7.2;3.9;;;;;;;5.04;90.38184;944.87;;;;
2021/10/18 06:10:31;;;;;;;8.4;3.8;;;;;;;5.02;89.94043;944.9113;;;;
2021/10/18 06:12:56;;;;;;;5.3;2.9;;;;;;;5;90.45313;944.9579;;;;
2021/10/18 06:15:26;;;;;;;5.9;3.4;;;;;;;4.97;90.29004;944.9908;;;;
2021/10/18 06:18:13;;;;;;;5.3;3;;;;;;;5.02;90.33301;944.9576;;;;
2021/10/18 06:20:38;;;;;;;7.3;3.4;;;;;;;4.74;92.30371;945.0213;;;;
2021/10/18 06:23:03;;;;;;;7.6;3.1;;;;;;;4.65;92.92383;944.9781;;;;
2021/10/18 06:25:29;;;;;;;6.4;3.1;;;;;;;4.85;92.94629;945.0608;;;;
2021/10/18 06:27:55;;;;;;;6.2;3;;;;;;;5.01;92.7207;945.1231;;;;
2021/10/18 06:30:20;;;;;;;4.8;2.9;;;;;;;5.2;91.85938;945.1292;;;;
2021/10/18 06:32:45;;;;;;;5;2.9;;;;;;;5.35;89.99902;945.0923;;;;
2021/10/18 06:35:10;;;;;;;6.1;2.8;;;;;;;5.41;89.80762;945.1099;;;;
2021/10/18 06:37:36;;;;;;;4.2;2.6;;;;;;;5.53;89.00879;945.101;;;;
2021/10/18 06:40:00;;;;;;;4.9;2.6;;;;;;;5.66;88.48145;945.1727;;;;
2021/10/18 06:42:28;;;;;;;3;2.4;;;;;;;5.89;87.61719;945.0619;;;;
2021/10/18 06:44:54;;;;;;;3.1;2.5;;;;;;;5.99;87.31738;945.1114;;;;
2021/10/18 06:47:20;;;;;;;4.7;2.2;;;;;;;6.14;86.53516;945.1933;;;;
2021/10/18 06:49:45;;;;;;;3.5;2.4;;;;;;;6.1;86.57324;945.2417;;;;
2021/10/18 06:52:10;;;;;;;2.6;2.1;;;;;;;6.18;86.03613;945.243;;;;
2021/10/18 06:54:40;;;;;;;4.1;2.4;;;;;;;6.28;85.85254;945.2856;;;;
2021/10/18 06:57:02;;;;;;;4.2;2.1;;;;;;;6.3;86.05957;945.296;;;;
2021/10/18 06:59:28;;;;;;;5.7;2.5;;;;;;;6.56;85.26367;945.2725;;;;
2021/10/18 07:01:53;;;;;;;2.7;2.1;;;;;;;6.7;84.63574;945.3325;;;;
2021/10/18 07:04:18;;;;;;;3.6;2.4;;;;;;;6.84;83.88184;945.3225;;;;
2021/10/18 07:06:43;;;;;;;4.7;2.5;;;;;;;6.84;83.73438;945.4103;;;;
2021/10/18 07:09:10;;;;;;;3.5;2.6;;;;;;;7.12;83.04102;945.4131;;;;
2021/10/18 07:11:35;;;;;;;6.5;2.8;;;;;;;7.18;82.12305;945.4792;;;;
2021/10/18 07:14:01;;;;;;;5.8;3.6;;;;;;;7.11;82.78906;945.4927;;;;
2021/10/18 07:16:27;;;;;;;9.1;4.1;;;;;;;7.27;82.61816;945.4067;;;;
2021/10/18 07:18:52;;;;;;;7.5;4.3;;;;;;;7.44;82.0498;945.441;;;;
2021/10/18 07:21:17;;;;;;;9.1;4.3;;;;;;;7.53;81.81641;945.4461;;;;
2021/10/18 07:23:45;;;;;;;10;4.8;;;;;;;7.75;80.77051;945.3655;;;;
2021/10/18 07:26:09;;;;;;;10.4;4.6;;;;;;;8.05;79.64551;945.2809;;;;
2021/10/18 07:28:36;;;;;;;9.6;4.8;;;;;;;8.24;78.4541;945.3076;;;;
2021/10/18 07:31:01;;;;;;;6.7;3.4;;;;;;;8.34;78.18848;945.2838;;;;
2021/10/18 07:33:27;;;;;;;5.5;2.9;;;;;;;8.45;77.91211;945.2134;;;;
2021/10/18 07:35:55;;;;;;;4.2;2.5;;;;;;;8.47;76.74512;945.2902;;;;
2021/10/18 07:38:23;;;;;;;4.2;2.5;;;;;;;8.49;77.45313;945.2819;;;;
2021/10/18 07:40:45;;;;;;;3.9;2.7;;;;;;;8.66;76.50684;945.3172;;;;
2021/10/18 07:43:11;;;;;;;3;2.2;;;;;;;8.73;75.10938;945.2518;;;;
2021/10/18 07:45:36;;;;;;;3.8;2.1;;;;;;;8.95;74.60156;945.2419;;;;
2021/10/18 07:48:02;;;;;;;3.9;2.2;;;;;;;9.01;74.74902;945.2805;;;;
2021/10/18 07:50:28;;;;;;;5.1;2.1;;;;;;;9.24;74.10449;945.2628;;;;
2021/10/18 07:52:53;;;;;;;4.2;2.5;;;;;;;9.5;72.35059;945.2578;;;;
2021/10/18 07:55:19;;;;;;;3.4;1.7;;;;;;;9.67;71.76367;945.2375;;;;
2021/10/18 07:57:43;;;;;;;3.1;2.1;;;;;;;9.88;71.31934;945.191;;;;
2021/10/18 08:00:09;;;;;;;3.7;2.3;;;;;;;10.42;68.17871;945.2622;;;;
2021/10/18 08:02:34;;;;;;;7.5;2.3;;;;;;;11.26;65.93359;945.1913;;;;
2021/10/18 08:04:59;;;;;;;4.3;2.3;;;;;;;11.98;62.19434;945.2395;;;;
2021/10/18 08:07:28;;;;;;;3.8;2;;;;;;;12.47;60.54395;945.2673;;;;
2021/10/18 08:09:50;;;;;;;7.2;2.8;;;;;;;13.2;59.24414;945.2875;;;;
2021/10/18 08:12:15;;;;;;;3.8;2;;;;;;;13.77;56.34082;945.1825;;;;
2021/10/18 08:14:47;;;;;;;4;2.1;;;;;;;13.24;57.89258;945.2162;;;;
2021/10/18 08:17:12;;;;;;;4;2.3;;;;;;;14.48;55.98438;945.2177;;;;
2021/10/18 08:19:37;;;;;;;3.6;2.4;;;;;;;15.16;52.74902;945.1742;;;;
2021/10/18 08:22:03;;;;;;;5.3;2.5;;;;;;;16;49.09082;945.1422;;;;
2021/10/18 08:24:28;;;;;;;7;2.6;;;;;;;15.25;52.06543;945.0977;;;;
2021/10/18 08:26:53;;;;;;;2.2;1.5;;;;;;;15.41;49.37207;945.0828;;;;
2021/10/18 08:29:19;;;;;;;3.4;1.7;;;;;;;13.66;53.00488;945.1241;;;;
2021/10/18 08:31:44;;;;;;;2.5;1.8;;;;;;;15.81;50.27148;945.1475;;;;
2021/10/18 08:34:09;;;;;;;2.5;1.7;;;;;;;17;46.93262;945.1586;;;;
2021/10/18 08:36:36;;;;;;;2.4;1.5;;;;;;;15.23;49.53516;945.1386;;;;
2021/10/18 08:39:57;;;;;;;2.4;1.6;;;;;;;15.66;47.75977;945.0792;;;;
2021/10/18 08:41:27;;;;;;;2.9;1.7;;;;;;;14.42;50.28613;945.2203;;;;
2021/10/18 08:46:14;;;;;;;2.8;1.6;;;;;;;14.83;50.5293;945.1944;;;;
2021/10/18 08:48:41;;;;;;;1.8;1.4;;;;;;;15.02;49.8584;945.2411;;;;
2021/10/18 08:51:06;;;;;;;3;1.5;;;;;;;14.43;49.87207;945.27;;;;
2021/10/18 08:53:32;;;;;;;2;1.6;;;;;;;14.58;50.83398;945.2352;;;;
2021/10/18 08:55:58;;;;;;;2.5;1.8;;;;;;;13.97;51.0166;945.2453;;;;
2021/10/18 08:58:24;;;;;;;2.2;1.6;;;;;;;14.09;50.93945;945.2681;;;;
2021/10/18 09:00:51;;;;;;;1.8;1.6;;;;;;;14.15;50.85352;945.2556;;;;
2021/10/18 09:03:14;;;;;;;3.3;1.4;;;;;;;13.99;52.6543;945.2358;;;;
2021/10/18 09:05:39;;;;;;;2.6;1.7;;;;;;;13.9;51.80078;945.2823;;;;
2021/10/18 09:08:06;;;;;;;1.8;1.5;;;;;;;14.08;53.84863;945.1711;;;;
2021/10/18 09:10:31;;;;;;;3.3;1.7;;;;;;;13.84;52.50781;945.2194;;;;
2021/10/18 09:12:57;;;;;;;2.3;1.5;;;;;;;13.62;53.01074;945.2589;;;;
2021/10/18 09:15:22;;;;;;;3;1.7;;;;;;;13.56;55.45313;945.2045;;;;
2021/10/18 09:17:48;;;;;;;1.9;1.6;;;;;;;13.71;57.25391;945.2612;;;;
2021/10/18 09:20:13;;;;;;;2.5;1.7;;;;;;;13.4;58.16699;945.2714;;;;
2021/10/18 09:22:39;;;;;;;2.7;1.6;;;;;;;13.38;56.63672;945.2897;;;;
2021/10/18 09:25:04;;;;;;;1.9;1.7;;;;;;;13.47;55.22168;945.2964;;;;
2021/10/18 09:27:29;;;;;;;1.8;1.6;;;;;;;13.53;53.90918;945.3442;;;;
2021/10/18 09:29:54;;;;;;;1.4;1.3;;;;;;;13.8;53.29688;945.3702;;;;
2021/10/18 09:32:20;;;;;;;2.3;1.6;;;;;;;13.94;54.67188;945.2955;;;;
2021/10/18 09:34:44;;;;;;;1.6;1.5;;;;;;;14.08;53.31934;945.3497;;;;
2021/10/18 09:37:11;;;;;;;2.2;1.7;;;;;;;13.97;55.2168;945.3293;;;;
2021/10/18 09:39:37;;;;;;;2.9;2.3;;;;;;;13.81;55.75;945.3086;;;;
2021/10/18 09:42:04;;;;;;;1.8;1.6;;;;;;;13.85;58.21582;945.3492;;;;
2021/10/18 09:44:45;;;;;;;2.5;1.6;;;;;;;13.77;57.50293;945.3201;;;;
2021/10/18 09:47:03;;;;;;;2.9;1.7;;;;;;;13.79;55.27441;945.318;;;;
2021/10/18 10:52:35;;;;;;;2.5;2.3;;;;;;;13.89;58.56641;944.8859;;;;
2021/10/18 10:55:00;;;;;;;3.7;2.4;;;;;;;14.05;59.62305;944.8825;;;;
2021/10/18 10:57:27;;;;;;;2.8;2.5;;;;;;;14.4;58.46289;944.8698;;;;
2021/10/18 10:59:52;;;;;;;3.5;2.6;;;;;;;14.63;59.56543;944.8181;;;;
2021/10/18 11:02:17;;;;;;;3.2;2.5;;;;;;;14.57;58.12793;944.7734;;;;
2021/10/18 11:04:51;;;;;;;3.8;2.6;;;;;;;14.91;59.53418;944.7159;;;;
2021/10/18 11:07:15;;;;;;;2.9;2.4;;;;;;;15;58.17285;944.6873;;;;
2021/10/18 11:09:41;;;;;;;3.3;2.3;;;;;;;15.42;58.3916;944.697;;;;
2021/10/18 11:12:06;;;;;;;3.8;2.5;;;;;;;15.58;58.19141;944.678;;;;
2021/10/18 11:14:31;;;;;;;3.6;2.5;;;;;;;15.54;58.38477;944.6297;;;;
2021/10/18 11:16:56;;;;;;;3.5;2.3;;;;;;;15.58;56.42578;944.6193;;;;
2021/10/18 11:19:21;;;;;;;2.8;2.5;;;;;;;15.91;56.64063;944.498;;;;
2021/10/18 11:21:46;;;;;;;3.1;2.5;;;;;;;15.98;56.89453;944.5108;;;;
2021/10/18 11:24:12;;;;;;;2.5;2.3;;;;;;;16.26;56.65137;944.4698;;;;
2021/10/18 11:26:38;;;;;;;2.9;2.5;;;;;;;16.37;54.5498;944.4639;;;;
2021/10/18 11:29:03;;;;;;;4.4;2.5;;;;;;;16.54;53.74902;944.4348;;;;
2021/10/18 11:31:28;;;;;;;3.5;2.1;;;;;;;16.51;52.22754;944.3722;;;;
2021/10/18 11:33:53;;;;;;;2.7;2.4;;;;;;;16.95;52.65039;944.3478;;;;
2021/10/18 11:36:18;;;;;;;2.8;2.2;;;;;;;17.46;51.76074;944.3463;;;;
2021/10/18 11:38:44;;;;;;;2.8;2;;;;;;;17.83;47.63672;944.3876;;;;
2021/10/18 11:41:09;;;;;;;2.6;2.1;;;;;;;18.01;47.19141;944.3635;;;;
2021/10/18 11:43:35;;;;;;;2.2;2;;;;;;;19.13;46.05371;944.2889;;;;
2021/10/18 11:45:59;;;;;;;3.6;2.4;;;;;;;20.39;43.69824;944.2978;;;;
2021/10/18 11:48:24;;;;;;;3;2;;;;;;;21.12;41.47754;944.2587;;;;
2021/10/18 11:50:52;;;;;;;2.9;2;;;;;;;22.31;37.90625;944.3194;;;;
2021/10/18 11:53:15;;;;;;;3.3;2;;;;;;;23.9;35.60547;944.2131;;;;
2021/10/18 11:55:39;;;;;;;2.1;1.9;;;;;;;24.17;35.44922;944.1507;;;;
2021/10/18 11:58:05;;;;;;;3.1;2.1;;;;;;;25.71;32.57129;944.207;;;;
2021/10/18 12:00:30;;;;;;;3.5;2.4;;;;;;;26.31;33.43164;944.1898;;;;
2021/10/18 12:03:01;;;;;;;2.5;2.1;;;;;;;28.38;29.13867;944.1548;;;;
2021/10/18 12:05:25;;;;;;;46.6;5.1;;;;;;;28.31;29.28906;944.1595;;;;
2021/10/18 12:07:48;;;;;;;3.6;2.1;;;;;;;27.01;32.21484;944.1227;;;;
2021/10/18 12:10:13;;;;;;;2.7;2.1;;;;;;;28.74;28.78223;944.0848;;;;
2021/10/18 12:12:38;;;;;;;5.6;2.3;;;;;;;30.84;25.8916;944.0664;;;;
2021/10/18 12:15:03;;;;;;;2.1;1.9;;;;;;;32.25;23.5498;944.012;;;;
2021/10/18 12:17:30;;;;;;;2.2;1.9;;;;;;;33.64;22.64746;943.9675;;;;
2021/10/18 12:19:55;;;;;;;3.2;2.1;;;;;;;34.11;21.87598;943.9838;;;;
2021/10/18 12:22:19;;;;;;;2.2;1.9;;;;;;;33.59;22.63281;943.9642;;;;
2021/10/18 12:24:44;;;;;;;83;10.5;;;;;;;31.75;24.13477;944.0028;;;;
2021/10/18 12:27:13;;;;;;;3.1;2.2;;;;;;;31.6;25.34863;943.9883;;;;
2021/10/18 12:29:35;;;;;;;273.8;26.7;;;;;;;29.67;27.44629;943.9484;;;;
2021/10/18 12:32:03;;;;;;;65.9;7.8;;;;;;;30.36;26.62793;943.9526;;;;
2021/10/18 12:34:26;;;;;;;2.9;2;;;;;;;31.37;25.70605;944.0175;;;;
2021/10/18 12:36:51;;;;;;;2.4;2.1;;;;;;;32.85;23.61719;944.0037;;;;
2021/10/18 12:39:16;;;;;;;2.9;2.3;;;;;;;33.52;23.23145;944.0153;;;;
2021/10/18 12:41:41;;;;;;;3;2.7;;;;;;;31.07;26.28711;944.019;;;;
2021/10/18 12:44:06;;;;;;;4.9;2.8;;;;;;;30.05;26.52637;944.0051;;;;
2021/10/18 12:46:31;;;;;;;95.1;10.1;;;;;;;28.75;29.29395;944.0172;;;;
2021/10/18 12:48:57;;;;;;;3.6;2.6;;;;;;;30.06;27.41016;944.0289;;;;
2021/10/18 12:51:21;;;;;;;284.9;29.6;;;;;;;29.41;28.9668;943.993;;;;
2021/10/18 12:53:47;;;;;;;6.2;2.9;;;;;;;30.44;27.59961;944.0125;;;;
2021/10/18 12:56:12;;;;;;;3.3;2.9;;;;;;;29.98;28.57422;944.0533;;;;
2021/10/18 12:58:39;;;;;;;4;2.9;;;;;;;31.45;25.84277;944.0325;;;;
2021/10/18 13:01:02;;;;;;;5.3;2.6;;;;;;;32.4;25.30957;943.9476;;;;
2021/10/18 13:03:28;;;;;;;4.6;3;;;;;;;31.96;25.67969;944.0528;;;;
2021/10/18 13:05:55;;;;;;;5;3;;;;;;;33.19;23.95996;943.9882;;;;
2021/10/18 13:08:19;;;;;;;3.9;3;;;;;;;33.8;23.70215;944.0321;;;;
2021/10/18 13:10:46;;;;;;;2.9;2.6;;;;;;;35.4;21.81738;944.0185;;;;
2021/10/18 13:13:09;;;;;;;3.8;2.8;;;;;;;36.22;20.59863;944.0544;;;;
2021/10/18 13:15:37;;;;;;;19.7;4.5;;;;;;;35.2;20.625;944.161;;;;
2021/10/18 13:18:02;;;;;;;2.6;2.4;;;;;;;34.28;22.07715;944.1122;;;;
2021/10/18 13:20:28;;;;;;;2.7;2.5;;;;;;;34.89;21.2627;944.134;;;;
2021/10/18 13:22:54;;;;;;;2.8;2.2;;;;;;;36.25;20.41895;944.1683;;;;
2021/10/18 13:25:20;;;;;;;4.8;2.4;;;;;;;37.24;19.33496;944.1556;;;;
2021/10/18 13:27:45;;;;;;;3.3;2.5;;;;;;;35.52;20.76074;944.1964;;;;
2021/10/18 13:30:12;;;;;;;3.2;2.6;;;;;;;36.04;19.97363;944.183;;;;
2021/10/18 13:32:37;;;;;;;3;2.7;;;;;;;34.79;21.24609;944.1975;;;;
2021/10/18 13:35:03;;;;;;;3.3;2.6;;;;;;;35.29;20.8584;944.1724;;;;
2021/10/18 13:37:28;;;;;;;2.4;2.2;;;;;;;35.85;19.92871;944.1656;;;;
2021/10/18 13:39:54;;;;;;;4.6;2.9;;;;;;;36.07;19.99902;944.1584;;;;
2021/10/18 13:42:19;;;;;;;2.4;2.2;;;;;;;35.26;20.24121;944.163;;;;
2021/10/18 13:44:45;;;;;;;3.1;2.5;;;;;;;35.45;20.32227;944.1494;;;;
2021/10/18 13:47:10;;;;;;;4.4;2.8;;;;;;;34.92;20.7207;944.1761;;;;
2021/10/18 13:49:37;;;;;;;2.6;2.4;;;;;;;35.19;20.80566;944.1674;;;;
2021/10/18 13:52:02;;;;;;;3.5;2.2;;;;;;;35.31;20.35254;944.1772;;;;
2021/10/18 13:54:27;;;;;;;3.1;2.4;;;;;;;35.76;19.88965;944.1384;;;;
2021/10/18 13:56:52;;;;;;;2.2;2;;;;;;;36.38;19.2627;944.088;;;;
2021/10/18 13:59:18;;;;;;;3.2;2.2;;;;;;;35.92;19.77539;944.0606;;;;
2021/10/18 14:01:42;;;;;;;3.5;2.6;;;;;;;35.54;19.7832;944.0987;;;;
2021/10/18 14:04:07;;;;;;;3.3;2.6;;;;;;;35.1;20.40332;944.1153;;;;
2021/10/18 14:06:32;;;;;;;2.5;2.3;;;;;;;35.41;20.23633;944.1447;;;;
2021/10/18 14:08:58;;;;;;;2.1;1.9;;;;;;;35.51;20.10742;944.1584;;;;
2021/10/18 14:11:23;;;;;;;2.4;2.2;;;;;;;34.59;21.17578;944.1531;;;;
2021/10/18 14:13:48;;;;;;;2.9;2.6;;;;;;;34.07;21.29688;944.1489;;;;
2021/10/18 14:16:13;;;;;;;2.8;2.4;;;;;;;33.57;21.86328;944.1355;;;;
2021/10/18 14:18:38;;;;;;;2.9;2.5;;;;;;;33.72;21.8457;944.108;;;;
2021/10/18 14:21:04;;;;;;;3.4;2.9;;;;;;;33.43;21.96387;944.0072;;;;
2021/10/18 14:23:29;;;;;;;2.9;2.6;;;;;;;33.21;22.44629;944.0588;;;;
2021/10/18 14:25:54;;;;;;;2.4;2.2;;;;;;;32.98;22.50684;944.0876;;;;
2021/10/18 14:28:20;;;;;;;2.6;2.4;;;;;;;32.78;22.83301;944.0129;;;;
2021/10/18 14:30:45;;;;;;;2.6;2.1;;;;;;;32.15;23.41211;944.0062;;;;
2021/10/18 14:33:11;;;;;;;3.3;2.3;;;;;;;32.21;23.54785;944.0005;;;;
2021/10/18 14:35:36;;;;;;;3.1;2.2;;;;;;;32.38;23.38867;943.9975;;;;
2021/10/18 14:38:03;;;;;;;2.5;2.3;;;;;;;32.19;23.73828;943.9953;;;;
2021/10/18 14:40:28;;;;;;;2.9;2.6;;;;;;;32.16;23.42578;943.9709;;;;
2021/10/18 14:42:53;;;;;;;3.6;2.2;;;;;;;31.93;24.08398;944.0364;;;;
2021/10/18 14:45:18;;;;;;;4.7;2.1;;;;;;;32.5;23.55078;944.0375;;;;
2021/10/18 14:47:43;;;;;;;2.3;2;;;;;;;32.55;23.68457;944.011;;;;
2021/10/18 14:50:10;;;;;;;2.4;1.9;;;;;;;32.32;24.32129;944.0313;;;;
2021/10/18 14:52:35;;;;;;;2.2;1.9;;;;;;;32.22;24.55566;944.05;;;;
2021/10/18 14:55:00;;;;;;;2.7;1.6;;;;;;;31.31;25.72656;944.0313;;;;
2021/10/18 14:57:25;;;;;;;2.3;2.1;;;;;;;30.67;26.43164;944.0656;;;;
2021/10/18 14:59:51;;;;;;;2.1;1.8;;;;;;;29.96;27.17676;944.0784;;;;
2021/10/18 15:02:16;;;;;;;2.4;1.6;;;;;;;29.14;28.65234;944.0756;;;;
2021/10/18 15:04:41;;;;;;;1.9;1.7;;;;;;;28.61;29.08301;944.1671;;;;
2021/10/18 15:07:08;;;;;;;3.2;1.9;;;;;;;28.65;29.22754;944.1831;;;;
2021/10/18 15:09:32;;;;;;;2.3;2.1;;;;;;;28.1;29.94141;944.1408;;;;
2021/10/18 15:11:59;;;;;;;3.2;2.1;;;;;;;27.71;30.76953;944.1029;;;;
2021/10/18 15:14:25;;;;;;;4;2.9;;;;;;;26.83;32.29688;944.0934;;;;
2021/10/18 15:16:50;;;;;;;6.1;3.7;;;;;;;25.72;34.03711;944.1619;;;;
2021/10/18 15:19:15;;;;;;;3.6;3.2;;;;;;;24.28;37.04883;944.1724;;;;
2021/10/18 15:21:40;;;;;;;2.5;2.3;;;;;;;22.88;39.51758;944.1772;;;;
2021/10/18 15:24:05;;;;;;;4.1;2.3;;;;;;;21.93;41.53027;944.1765;;;;
2021/10/18 15:26:40;;;;;;;8.1;4.3;;;;;;;20.8;44.15918;944.2527;;;;
2021/10/18 15:29:04;;;;;;;8.4;4.9;;;;;;;20.01;46.14648;944.2725;;;;
2021/10/18 15:31:29;;;;;;;6.6;4.4;;;;;;;19.34;48.58008;944.2224;;;;
2021/10/18 15:33:54;;;;;;;4.2;2.9;;;;;;;18.77;50.28516;944.2446;;;;
2021/10/18 15:36:20;;;;;;;4.7;4;;;;;;;18.3;51.87109;944.3483;;;;
2021/10/18 15:38:45;;;;;;;8.6;7.8;;;;;;;17.86;52.8291;944.4406;;;;
2021/10/18 15:41:11;;;;;;;6.6;4.6;;;;;;;17.44;54.7168;944.4792;;;;
2021/10/18 15:43:36;;;;;;;3.3;2.4;;;;;;;16.97;56.5127;944.5118;;;;
2021/10/18 15:46:02;;;;;;;4.8;3.7;;;;;;;16.57;58.11523;944.6147;;;;
2021/10/18 15:48:27;;;;;;;7.3;5.1;;;;;;;16.47;59.05176;944.6553;;;;
2021/10/18 15:50:53;;;;;;;5.6;3.9;;;;;;;15.96;60.50977;944.7043;;;;
2021/10/18 15:53:18;;;;;;;6.2;3.5;;;;;;;15.74;61.4043;944.7886;;;;
2021/10/18 15:55:43;;;;;;;4.8;3.6;;;;;;;15.6;61.94922;944.7978;;;;
2021/10/18 15:58:52;;;;;;;5.6;3.6;;;;;;;15.61;62.25;944.7834;;;;
2021/10/18 16:01:14;;;;;;;6.7;4.2;;;;;;;15.5;62.89453;944.8344;;;;
2021/10/18 16:03:39;;;;;;;11.1;8.5;;;;;;;15.24;63.88477;944.7848;;;;
2021/10/18 16:06:04;;;;;;;9.1;7.1;;;;;;;15.25;63.9082;944.8426;;;;
2021/10/18 16:08:59;;;;;;;7.2;4.6;;;;;;;15.23;64.25195;944.8321;;;;
2021/10/18 16:11:24;;;;;;;10.8;6.6;;;;;;;15.1;65.12012;944.874;;;;
2021/10/18 16:13:49;;;;;;;5.8;4.6;;;;;;;14.84;66.35059;944.9138;;;;
2021/10/18 16:16:14;;;;;;;6.7;4.1;;;;;;;14.75;66.5332;944.9973;;;;
2021/10/18 16:18:39;;;;;;;5.8;4.1;;;;;;;14.6;66.26953;945.0758;;;;
2021/10/18 16:21:04;;;;;;;6.8;4;;;;;;;14.46;65.5791;945.0494;;;;
2021/10/18 16:23:29;;;;;;;6.3;4.2;;;;;;;14.33;66.6416;945.1025;;;;
2021/10/18 16:25:55;;;;;;;4.8;4.1;;;;;;;14.07;68.74414;945.1286;;;;
2021/10/18 16:28:20;;;;;;;7.8;4.6;;;;;;;13.87;69.68848;945.1259;;;;
2021/10/18 16:30:45;;;;;;;4.3;3.3;;;;;;;13.67;70.10547;945.1008;;;;
2021/10/18 16:33:10;;;;;;;4.9;3.7;;;;;;;13.67;70.16309;945.1873;;;;
2021/10/18 16:35:37;;;;;;;5.8;3.8;;;;;;;13.61;70.12988;945.212;;;;
2021/10/18 16:38:02;;;;;;;5.9;4;;;;;;;13.51;70.68848;945.1736;;;;
2021/10/18 16:40:27;;;;;;;5.7;4.4;;;;;;;13.4;71.72852;945.113;;;;
2021/10/18 16:42:52;;;;;;;7.5;5.2;;;;;;;13.39;70.80762;945.1386;;;;
2021/10/18 16:45:17;;;;;;;8.2;5;;;;;;;13.32;69.81934;945.0762;;;;
2021/10/18 16:47:42;;;;;;;8.8;5.5;;;;;;;13.24;70.34766;945.0971;;;;